Impacts METAR Board
IDs:

KCVG - Cincinnati Intl, KY, US

Updated at: 1100 UTC 09 Jul 2020
Potential Impact None Slight Moderate High
Time 08/23Z 09/00Z 09/01Z 09/02Z 09/03Z 09/04Z 09/05Z 09/06Z 09/07Z 09/08Z 09/09Z 09/10Z 09/11Z
Temp89 84 82 80 78 77 74 75 77 74 71 75 74
Dewpt68 72 70 70 70 70 70 70 69 69 69 69 70
Altim29.90 29.91 29.92 29.93 29.93 29.94 29.94 29.93 29.92 29.92 29.91 29.92 29.95
VIS10 10 10 10 10 10 10 9 10 9 8 8 5
CIG-- 250 250 250 -- -- -- -- -- -- -- -- --
CoverSCTBKNBKNBKNSCTSCTFEWSCTFEWFEWCLRCLRCLR
FltCatVFRVFRVFRVFRVFRVFRVFRVFRVFRVFRVFRVFRMVFR
WX------------------------BR
WDir250270300030028000000320360
WSpd8 9 4 0 3 4 0 0 3 0 0 4 3
WGst-- -- -- -- -- -- -- -- -- -- -- -- --
Raw hourly METARs
KCVG 082252Z 25008KT 210V270 10SM FEW050TCU FEW075 FEW200 SCT250 32/20 A2990 RMK AO2 LTG DSNT NE AND E TSB22E52 SLP112 TS DSIPTD TCU N-NE T03170200
KCVG 082352Z 27009KT 10SM FEW048 FEW100 FEW200 BKN250 29/22 A2991 RMK AO2 LTG DSNT NW-NE SLP116 CB DSNT NE AND NW 60000 T02890222 10328 20283 55002
KCVG 090052Z 30004KT 10SM FEW048 FEW090 BKN250 28/21 A2992 RMK AO2 LTG DSNT N SLP119 TCU DSNT NE T02780211
KCVG 090152Z 00000KT 10SM FEW080 FEW190 BKN250 27/21 A2993 RMK AO2 SLP121 T02670211
KCVG 090252Z 30003KT 10SM FEW190 SCT250 26/21 A2993 RMK AO2 SLP124 T02560211 51008
KCVG 090352Z 28004KT 10SM FEW190 SCT250 25/21 A2994 RMK AO2 SLP125 T02500211
KCVG 090452Z 00000KT 10SM FEW150 23/21 A2994 RMK AO2 SLP126 T02330211 403280206
KCVG 090552Z 00000KT 9SM FEW060 SCT230 24/21 A2993 RMK AO2 SLP124 T02390211 10289 20233 58001
KCVG 090652Z VRB03KT 10SM FEW250 25/21 A2992 RMK AO2 SLP118 T02500206
KCVG 090752Z 00000KT 9SM FEW250 23/21 A2992 RMK AO2 SLP119 T02330206
KCVG 090852Z 00000KT 8SM CLR 22/21 A2991 RMK AO2 SLP117 T02170206 56007
KCVG 090952Z 32004KT 8SM CLR 24/21 A2992 RMK AO2 SLP119 T02390206
KCVG 091052Z 36003KT 5SM BR CLR 23/21 A2995 RMK AO2 SLP130 T02330211



Page loaded:  11:39 UTC  |   04:39 AM Pacific  |   05:39 AM Mountain  |   06:39 AM Central  |   07:39 AM Eastern

 

ADVISORIES

FORECASTS

FORECASTS

OBSERVATIONS

USER TOOLS

ABOUT US